Time;durP1;ratioP1;P1;durP2;ratioP2;P2;SDS_P1;SDS_P2;PMS_P1;PMS_P2;Temp;Humidity;BMP_temperature;BMP_pressure;BME280_temperature;BME280_humidity;BME280_pressure;Samples;Min_cycle;Max_cycle;Signal;HPM_P1;HPM_P2
2022/06/16 00:01:46;;;;;;;1999.90;999.90;;;13.90;99.90;;;;;;5093151;28;20551;-62
2022/06/16 00:04:12;;;;;;;1547.55;794.20;;;13.80;99.90;;;;;;5095330;28;20040;-62
2022/06/16 00:06:37;;;;;;;234.32;218.60;;;13.70;99.90;;;;;;5095255;28;20059;-62
2022/06/16 00:09:03;;;;;;;1547.38;793.95;;;13.70;99.90;;;;;;5091827;28;20409;-62
2022/06/16 00:11:30;;;;;;;297.27;276.85;;;13.70;99.90;;;;;;5074793;28;20049;-62
2022/06/16 00:13:55;;;;;;;345.60;322.00;;;13.70;99.90;;;;;;5074906;28;20060;-62
2022/06/16 00:16:22;;;;;;;324.52;303.00;;;13.70;99.90;;;;;;5073654;28;20040;-62
2022/06/16 00:18:49;;;;;;;232.55;216.32;;;13.70;99.90;;;;;;5083197;28;20176;-61
2022/06/16 00:21:15;;;;;;;1557.03;802.85;;;13.70;99.90;;;;;;5093173;28;20052;-62
2022/06/16 00:23:41;;;;;;;1553.30;799.58;;;13.60;99.90;;;;;;5093706;28;20048;-62
2022/06/16 00:26:15;;;;;;;1558.25;803.75;;;13.70;99.90;;;;;;5094771;28;20181;-62
2022/06/16 00:28:41;;;;;;;1539.82;786.50;;;13.70;99.90;;;;;;5094303;28;20044;-62
2022/06/16 00:31:09;;;;;;;1999.90;999.90;;;13.70;99.90;;;;;;5093417;28;20052;-61
2022/06/16 00:33:35;;;;;;;1539.40;786.53;;;13.70;99.90;;;;;;5093198;28;20036;-61
2022/06/16 00:36:01;;;;;;;1534.00;781.50;;;13.80;99.90;;;;;;5092652;28;20059;-61
2022/06/16 00:38:28;;;;;;;258.25;241.15;;;13.80;99.90;;;;;;5092160;28;20051;-62
2022/06/16 00:40:54;;;;;;;295.58;276.48;;;13.70;99.90;;;;;;5085470;28;20048;-62
2022/06/16 00:43:19;;;;;;;367.88;343.60;;;13.60;99.90;;;;;;5072039;28;20047;-61
2022/06/16 00:45:56;;;;;;;436.70;408.05;;;13.50;99.90;;;;;;5070993;28;20041;-61
2022/06/16 00:48:27;;;;;;;403.33;378.15;;;13.50;99.90;;;;;;5073713;28;20049;-61
2022/06/16 00:51:10;;;;;;;314.65;295.55;;;13.60;99.90;;;;;;5073142;28;20071;-62
2022/06/16 00:53:39;;;;;;;365.80;341.80;;;13.60;99.90;;;;;;5077320;28;20086;-62
2022/06/16 00:56:07;;;;;;;370.98;346.92;;;13.70;99.90;;;;;;5092628;28;20127;-61
2022/06/16 00:58:36;;;;;;;298.02;278.13;;;13.60;99.90;;;;;;5093563;28;20090;-61
2022/06/16 01:01:02;;;;;;;303.50;283.35;;;13.70;99.90;;;;;;5092415;28;20455;-61
2022/06/16 01:06:23;;;;;;;287.35;267.70;;;13.50;99.90;;;;;;5081612;28;20110;-61
2022/06/16 01:08:56;;;;;;;214.10;199.35;;;13.50;99.90;;;;;;5071810;28;20059;-61
2022/06/16 01:14:40;;;;;;;247.60;231.05;;;13.50;99.90;;;;;;5093889;28;20148;-62
2022/06/16 01:17:23;;;;;;;258.77;241.55;;;13.40;99.90;;;;;;5085385;28;20072;-62
2022/06/16 01:20:01;;;;;;;1116.72;608.97;;;13.40;99.90;;;;;;5073487;28;20056;-61
2022/06/16 01:22:47;;;;;;;274.50;256.20;;;13.40;99.90;;;;;;5093071;28;20051;-61
2022/06/16 01:25:52;;;;;;;251.75;234.80;;;13.30;99.90;;;;;;5075315;28;20044;-61
2022/06/16 01:28:28;;;;;;;224.93;210.13;;;13.30;99.90;;;;;;5092313;28;20116;-61
2022/06/16 01:31:09;;;;;;;252.55;235.13;;;13.20;99.90;;;;;;5074147;28;20083;-62
2022/06/16 01:34:00;;;;;;;1578.00;822.60;;;13.20;99.90;;;;;;5091598;28;20072;-61
2022/06/16 01:36:36;;;;;;;294.25;276.33;;;13.30;99.90;;;;;;5075362;28;20102;-62
2022/06/16 01:39:09;;;;;;;397.63;373.40;;;13.30;99.90;;;;;;5090945;28;20119;-62
2022/06/16 01:41:36;;;;;;;;;;;13.20;99.90;;;;;;5088850;28;20047;-61
2022/06/16 01:44:10;;;;;;;314.58;295.60;;;13.10;99.90;;;;;;5071356;28;19921;-62
2022/06/16 01:46:40;;;;;;;463.48;436.65;;;13.10;99.90;;;;;;5074709;28;20502;-61
2022/06/16 01:49:18;;;;;;;517.92;488.02;;;13.20;99.90;;;;;;5091474;28;20036;-62
2022/06/16 01:51:54;;;;;;;582.67;547.95;;;13.20;99.90;;;;;;5091232;28;20044;-61
2022/06/16 01:54:29;;;;;;;602.90;568.00;;;13.20;99.90;;;;;;5091039;28;20040;-61
2022/06/16 01:57:03;;;;;;;581.28;547.38;;;13.20;99.90;;;;;;5083150;28;20048;-61
2022/06/16 01:59:34;;;;;;;591.17;555.53;;;13.30;99.90;;;;;;5085604;28;20037;-62
2022/06/16 02:02:05;;;;;;;629.00;590.38;;;13.20;99.90;;;;;;5070106;28;20542;-62
2022/06/16 02:04:38;;;;;;;544.50;514.22;;;13.20;99.90;;;;;;5076798;28;20041;-61
2022/06/16 02:07:10;;;;;;;641.67;601.42;;;13.20;99.90;;;;;;5070974;28;20048;-61
2022/06/16 02:09:44;;;;;;;1653.00;893.92;;;13.20;99.90;;;;;;5070064;28;20047;-61
2022/06/16 02:12:55;;;;;;;646.47;605.72;;;13.30;99.90;;;;;;5069928;28;20044;-61
2022/06/16 02:15:11;;;;;;;618.40;581.53;;;13.40;99.90;;;;;;5069856;28;20055;-61
2022/06/16 02:17:49;;;;;;;;;;;13.30;99.90;;;;;;5071769;28;20550;-61
2022/06/16 02:20:15;;;;;;;588.97;553.75;;;13.40;99.90;;;;;;5071458;28;20022;-61
2022/06/16 02:22:41;;;;;;;974.28;695.25;;;13.30;99.90;;;;;;5083381;28;20050;-61
2022/06/16 02:25:07;;;;;;;647.80;607.80;;;13.30;99.90;;;;;;5078774;28;20085;-62
2022/06/16 02:27:35;;;;;;;980.65;701.67;;;13.30;99.90;;;;;;5097000;28;20114;-61
2022/06/16 02:30:01;;;;;;;674.30;631.65;;;13.30;99.90;;;;;;5077529;28;20040;-61
2022/06/16 02:32:58;;;;;;;988.60;708.50;;;13.20;99.90;;;;;;5061688;28;20055;-61
2022/06/16 02:35:37;;;;;;;609.33;573.50;;;13.30;99.90;;;;;;5076551;28;20047;-62
2022/06/16 02:38:12;;;;;;;606.47;570.83;;;13.30;99.90;;;;;;5075498;28;20109;-61
2022/06/16 02:40:55;;;;;;;611.80;576.20;;;13.30;99.90;;;;;;5086018;28;20048;-61
2022/06/16 02:43:44;;;;;;;591.00;557.88;;;13.30;99.90;;;;;;5094456;28;20150;-61
2022/06/16 02:46:29;;;;;;;590.53;557.00;;;13.30;99.90;;;;;;5055196;28;20045;-61
2022/06/16 02:49:31;;;;;;;558.80;527.70;;;13.20;99.90;;;;;;5067396;28;20131;-61
2022/06/16 02:52:23;;;;;;;625.20;587.55;;;13.20;99.90;;;;;;5076925;28;20059;-61
2022/06/16 02:54:55;;;;;;;596.67;561.78;;;13.20;99.90;;;;;;5095342;28;20044;-61
2022/06/16 02:57:33;;;;;;;661.65;620.70;;;13.20;99.90;;;;;;5095183;28;20075;-61
2022/06/16 03:00:07;;;;;;;605.80;570.63;;;13.10;99.90;;;;;;5094787;28;20394;-61
2022/06/16 03:02:38;;;;;;;631.58;593.67;;;13.10;99.90;;;;;;5095148;28;20438;-61
2022/06/16 03:05:05;;;;;;;652.90;612.83;;;13.00;99.90;;;;;;5094510;28;20121;-61
2022/06/16 03:07:34;;;;;;;657.53;617.10;;;13.00;99.90;;;;;;5076850;28;20044;-61
2022/06/16 03:10:12;;;;;;;585.65;551.55;;;13.00;99.90;;;;;;5095009;28;20044;-61
2022/06/16 03:12:37;;;;;;;550.55;519.33;;;13.00;99.90;;;;;;5093969;28;20055;-61
2022/06/16 03:15:08;;;;;;;515.25;488.08;;;12.90;99.90;;;;;;5082219;28;20048;-61
2022/06/16 03:17:34;;;;;;;560.72;528.70;;;12.90;99.90;;;;;;5094921;28;20126;-61
2022/06/16 03:20:00;;;;;;;527.38;497.20;;;12.80;99.90;;;;;;5094115;28;20123;-62
2022/06/16 03:22:26;;;;;;;489.13;462.52;;;12.80;99.90;;;;;;5094310;28;20047;-62
2022/06/16 03:24:51;;;;;;;631.35;593.22;;;12.80;99.90;;;;;;5094113;28;20036;-61
2022/06/16 03:27:17;;;;;;;608.65;572.33;;;12.90;99.90;;;;;;5076693;28;20256;-61
2022/06/16 03:29:44;;;;;;;606.95;572.05;;;13.00;99.90;;;;;;5077098;28;20055;-61
2022/06/16 03:32:12;;;;;;;1999.90;999.90;;;13.00;99.90;;;;;;5094254;28;20363;-61
2022/06/16 03:34:37;;;;;;;1999.90;999.90;;;13.10;99.90;;;;;;5087153;28;20087;-61
2022/06/16 03:37:03;;;;;;;1999.90;999.90;;;13.20;99.90;;;;;;5075129;28;20504;-61
2022/06/16 03:39:39;;;;;;;1999.90;999.90;;;13.30;99.90;;;;;;5073198;28;20059;-61
2022/06/16 03:42:05;;;;;;;1999.90;999.90;;;13.40;99.90;;;;;;5073692;28;20386;-61
2022/06/16 03:44:31;;;;;;;1999.90;999.90;;;13.40;99.90;;;;;;5073744;28;20041;-61
2022/06/16 03:46:57;;;;;;;1999.90;999.90;;;13.50;99.90;;;;;;5073420;28;20047;-61
2022/06/16 03:49:32;;;;;;;587.78;553.42;;;13.60;99.90;;;;;;5073904;28;20047;-61
2022/06/16 03:51:58;;;;;;;1613.40;855.95;;;13.50;99.90;;;;;;5088875;28;20079;-61
2022/06/16 03:54:30;;;;;;;1624.32;866.53;;;13.50;99.90;;;;;;5093167;28;20044;-61
2022/06/16 03:57:00;;;;;;;1999.90;999.90;;;13.50;99.90;;;;;;5094214;28;20048;-61
2022/06/16 03:59:26;;;;;;;594.08;558.78;;;13.50;99.90;;;;;;5075971;28;20051;-61
2022/06/16 04:01:58;;;;;;;1649.70;890.95;;;13.60;99.90;;;;;;5076010;28;20055;-61
2022/06/16 04:04:28;;;;;;;929.50;654.33;;;13.60;99.90;;;;;;5094073;28;20100;-61
2022/06/16 04:06:56;;;;;;;1264.38;748.42;;;13.60;99.90;;;;;;5092968;28;20394;-61
2022/06/16 04:09:24;;;;;;;615.45;579.17;;;13.70;99.90;;;;;;5092779;28;20040;-61
2022/06/16 04:11:52;;;;;;;575.90;543.03;;;13.70;99.90;;;;;;5093924;28;20055;-61
2022/06/16 04:14:17;;;;;;;1630.15;872.28;;;13.70;99.90;;;;;;5074595;28;20044;-61
2022/06/16 04:16:57;;;;;;;556.50;524.72;;;13.70;99.90;;;;;;5074687;28;20055;-61
2022/06/16 04:19:33;;;;;;;1612.00;854.88;;;13.80;99.90;;;;;;5093220;28;20047;-61
2022/06/16 04:21:59;;;;;;;1999.90;999.90;;;13.80;99.90;;;;;;5092468;28;20062;-61
2022/06/16 04:24:34;;;;;;;501.83;470.52;;;13.80;99.90;;;;;;5089203;28;20506;-61
2022/06/16 04:27:01;;;;;;;570.53;537.92;;;13.80;99.90;;;;;;5085624;28;20085;-61
2022/06/16 04:29:27;;;;;;;604.25;568.30;;;13.90;99.90;;;;;;5075384;28;20048;-61
2022/06/16 04:31:54;;;;;;;1999.90;999.90;;;13.90;99.90;;;;;;5093459;28;20052;-61
2022/06/16 04:34:25;;;;;;;1249.28;732.78;;;14.00;99.90;;;;;;5075322;28;20040;-61
2022/06/16 04:36:53;;;;;;;601.50;564.88;;;14.00;99.90;;;;;;5092667;28;20044;-61
2022/06/16 04:39:19;;;;;;;1999.90;999.90;;;14.10;99.90;;;;;;5076082;28;20074;-62
2022/06/16 04:41:48;;;;;;;1999.90;999.90;;;14.10;99.90;;;;;;5075933;28;20052;-61
2022/06/16 04:44:16;;;;;;;1999.90;999.90;;;14.10;99.90;;;;;;5092371;28;20040;-62
2022/06/16 04:46:45;;;;;;;1999.90;999.90;;;14.20;99.90;;;;;;5092890;28;20089;-61
2022/06/16 04:49:12;;;;;;;1999.90;999.90;;;14.20;99.90;;;;;;5059229;28;20468;-61
2022/06/16 04:51:43;;;;;;;1999.90;999.90;;;14.20;99.90;;;;;;5092385;28;20044;-61
2022/06/16 04:54:11;;;;;;;946.78;669.97;;;14.20;99.90;;;;;;5057762;28;20374;-62
2022/06/16 04:56:44;;;;;;;1999.90;999.90;;;14.20;99.90;;;;;;5071386;28;20117;-61
2022/06/16 04:59:37;;;;;;;947.10;670.92;;;14.20;99.90;;;;;;5072672;28;20499;-61
2022/06/16 05:02:26;;;;;;;1999.90;999.90;;;14.20;99.90;;;;;;5085111;28;20097;-61
2022/06/16 05:05:11;;;;;;;1999.90;999.90;;;14.20;99.90;;;;;;5091483;28;20432;-61
2022/06/16 05:07:44;;;;;;;1999.90;999.90;;;14.20;99.90;;;;;;5094087;28;20054;-61
2022/06/16 05:10:40;;;;;;;1999.90;999.90;;;14.20;99.90;;;;;;5090495;28;20402;-61
2022/06/16 05:13:29;;;;;;;1999.90;999.90;;;14.30;99.90;;;;;;5054830;28;20051;-62
2022/06/16 05:16:19;;;;;;;1999.90;999.90;;;14.40;99.90;;;;;;5055443;28;20048;-61
2022/06/16 05:19:17;;;;;;;1999.90;999.90;;;14.50;99.90;;;;;;5077882;28;20048;-61
2022/06/16 05:22:05;;;;;;;1999.90;999.90;;;14.60;99.90;;;;;;5091943;28;20048;-61
2022/06/16 05:24:54;;;;;;;1999.90;999.90;;;14.80;99.90;;;;;;5091506;28;20521;-61
2022/06/16 05:27:25;;;;;;;1999.90;999.90;;;14.90;99.90;;;;;;5092729;28;20075;-61
2022/06/16 05:30:02;;;;;;;1999.90;999.90;;;15.00;99.90;;;;;;5071962;28;20036;-61
2022/06/16 05:32:41;;;;;;;1999.90;999.90;;;15.20;99.90;;;;;;5071305;28;20056;-61
2022/06/16 05:35:34;;;;;;;889.22;617.92;;;15.30;99.90;;;;;;5072500;28;20048;-61
2022/06/16 05:38:19;;;;;;;902.25;629.92;;;15.50;99.90;;;;;;5088569;28;20535;-61
2022/06/16 05:40:57;;;;;;;609.85;573.67;;;15.60;99.90;;;;;;5090881;28;20059;-62
2022/06/16 05:43:35;;;;;;;589.80;555.67;;;15.80;99.90;;;;;;5092127;28;20571;-62
2022/06/16 05:46:06;;;;;;;942.08;666.72;;;16.00;99.90;;;;;;5082624;28;20040;-62
2022/06/16 05:48:35;;;;;;;608.83;573.17;;;16.10;99.90;;;;;;5072621;28;20052;-61
2022/06/16 05:51:10;;;;;;;580.10;547.25;;;16.10;99.90;;;;;;5071328;28;20044;-62
2022/06/16 05:53:48;;;;;;;662.17;621.93;;;16.20;99.90;;;;;;5071171;28;20052;-61
2022/06/16 05:56:21;;;;;;;583.53;549.58;;;16.20;99.90;;;;;;5074108;28;20451;-61
2022/06/16 05:58:47;;;;;;;576.85;545.05;;;16.20;99.90;;;;;;5092066;28;20043;-61
2022/06/16 06:01:14;;;;;;;606.53;571.38;;;16.20;99.90;;;;;;5090946;28;20044;-61
2022/06/16 06:03:42;;;;;;;625.30;588.33;;;16.30;99.90;;;;;;5091126;28;20044;-61
2022/06/16 06:06:08;;;;;;;639.75;600.95;;;16.40;99.90;;;;;;5091898;28;20043;-61
2022/06/16 06:17:08;;;;;;;559.30;525.42;;;16.70;99.90;;;;;;5071280;28;20480;-61
2022/06/16 06:19:34;;;;;;;643.17;601.35;;;16.90;99.90;;;;;;5070978;28;20371;-62
2022/06/16 06:22:09;;;;;;;521.45;487.58;;;17.00;99.90;;;;;;5082488;28;20123;-61
2022/06/16 06:24:36;;;;;;;1999.90;999.90;;;17.00;99.90;;;;;;5091296;28;20044;-61
2022/06/16 06:27:31;;;;;;;1999.90;999.90;;;17.10;99.90;;;;;;5091050;28;20044;-61
2022/06/16 06:29:58;;;;;;;1999.90;999.90;;;17.30;99.90;;;;;;5073677;28;20048;-61
2022/06/16 06:32:25;;;;;;;1999.90;999.90;;;17.30;99.90;;;;;;5091319;28;20047;-61
2022/06/16 06:34:52;;;;;;;1999.90;999.90;;;17.50;99.90;;;;;;5073879;28;20584;-61
2022/06/16 06:37:21;;;;;;;1999.90;999.90;;;17.50;99.90;;;;;;5092111;28;20094;-61
2022/06/16 06:39:48;;;;;;;1999.90;999.90;;;17.60;99.90;;;;;;5043956;28;20102;-62
2022/06/16 06:42:14;;;;;;;1999.90;999.90;;;17.60;99.90;;;;;;5069750;28;20060;-62
2022/06/16 06:44:42;;;;;;;1999.90;999.90;;;17.70;99.90;;;;;;5071050;28;20128;-61
2022/06/16 06:47:14;;;;;;;1999.90;999.90;;;17.80;99.90;;;;;;5072885;28;20060;-61
2022/06/16 06:49:40;;;;;;;1999.90;999.90;;;17.90;99.90;;;;;;5090174;28;20045;-61
2022/06/16 06:52:06;;;;;;;1999.90;999.90;;;18.00;99.90;;;;;;5092450;28;20158;-62
2022/06/16 06:54:32;;;;;;;1999.90;999.90;;;18.10;99.90;;;;;;5079502;28;20048;-62
2022/06/16 06:56:59;;;;;;;1999.90;999.90;;;18.20;99.90;;;;;;5070982;28;20071;-62
2022/06/16 06:59:25;;;;;;;1999.90;999.90;;;18.20;99.90;;;;;;5071786;28;20181;-61
2022/06/16 07:01:51;;;;;;;1999.90;999.90;;;18.30;99.90;;;;;;5071752;28;20550;-62
2022/06/16 07:04:18;;;;;;;1999.90;999.90;;;18.40;99.90;;;;;;5067833;28;20048;-61
2022/06/16 07:06:46;;;;;;;1999.90;999.90;;;18.50;99.90;;;;;;5072473;28;20049;-61
2022/06/16 07:09:14;;;;;;;1999.90;999.90;;;18.60;99.90;;;;;;5075302;28;20032;-61
2022/06/16 07:11:41;;;;;;;1999.90;999.90;;;18.60;99.90;;;;;;5074254;28;20044;-61
2022/06/16 07:14:08;;;;;;;1999.90;999.90;;;18.70;99.90;;;;;;5072254;28;20102;-61
2022/06/16 07:16:34;;;;;;;1999.90;999.90;;;18.70;99.90;;;;;;5066554;28;20045;-61
2022/06/16 07:19:00;;;;;;;1999.90;999.90;;;18.80;99.90;;;;;;5061193;28;20036;-61
2022/06/16 07:21:26;;;;;;;1999.90;999.90;;;18.90;99.90;;;;;;5074494;28;20110;-61
2022/06/16 07:23:53;;;;;;;1999.90;999.90;;;19.00;99.90;;;;;;5075790;28;20040;-62
2022/06/16 07:26:19;;;;;;;1999.90;999.90;;;19.10;99.90;;;;;;5072387;28;20098;-61
2022/06/16 07:28:47;;;;;;;1999.90;999.90;;;19.20;99.90;;;;;;5076040;28;20090;-62
2022/06/16 07:31:13;;;;;;;1999.90;999.90;;;19.40;99.90;;;;;;5074622;28;20047;-61
2022/06/16 07:33:39;;;;;;;1999.90;999.90;;;19.50;99.90;;;;;;5074153;28;20044;-62
2022/06/16 07:36:06;;;;;;;1999.90;999.90;;;19.60;99.50;;;;;;5074844;28;20399;-62
2022/06/16 07:38:32;;;;;;;1999.90;999.90;;;19.60;99.50;;;;;;5073889;28;20075;-62
2022/06/16 07:43:42;;;;;;;1999.90;999.90;;;19.80;99.40;;;;;;5069934;28;20098;-61
2022/06/16 07:46:08;;;;;;;1999.90;999.90;;;19.90;99.50;;;;;;5080519;28;20420;-61
2022/06/16 07:48:35;;;;;;;1999.90;999.90;;;20.10;99.30;;;;;;5065933;28;20074;-61
2022/06/16 07:51:00;;;;;;;1999.90;999.90;;;20.30;99.20;;;;;;5071383;28;20094;-61
2022/06/16 07:53:26;;;;;;;1999.90;999.90;;;20.40;99.00;;;;;;5070728;28;20052;-61
2022/06/16 07:55:52;;;;;;;1999.90;999.90;;;20.50;98.60;;;;;;5074037;28;20075;-61
2022/06/16 07:58:18;;;;;;;1999.90;999.90;;;20.40;98.30;;;;;;5073193;28;20044;-61
2022/06/16 08:00:43;;;;;;;1999.90;999.90;;;20.50;97.90;;;;;;5072534;28;20055;-61
2022/06/16 08:03:09;;;;;;;1999.90;999.90;;;20.50;98.00;;;;;;5054907;28;20045;-61
2022/06/16 08:05:35;;;;;;;1999.90;999.90;;;20.60;97.30;;;;;;5074103;28;20040;-61
2022/06/16 08:08:02;;;;;;;1999.90;999.90;;;20.60;94.30;;;;;;5080321;28;20047;-61
2022/06/16 08:10:33;;;;;;;1999.90;999.90;;;20.50;92.70;;;;;;5094202;28;20435;-61
2022/06/16 08:12:59;;;;;;;1999.90;999.90;;;20.40;94.00;;;;;;5093390;28;20060;-61
2022/06/16 08:15:25;;;;;;;1999.90;999.90;;;20.30;95.70;;;;;;5093561;28;20402;-61
2022/06/16 08:17:53;;;;;;;1999.90;999.90;;;20.40;94.70;;;;;;5072288;28;20055;-61
2022/06/16 08:20:19;;;;;;;1999.90;999.90;;;20.30;95.20;;;;;;5073282;28;20045;-61
2022/06/16 08:22:45;;;;;;;1999.90;999.90;;;20.20;92.90;;;;;;5073371;28;20049;-61
2022/06/16 08:25:12;;;;;;;1999.90;999.90;;;20.20;94.10;;;;;;5080817;28;20372;-61
2022/06/16 08:27:40;;;;;;;1999.90;999.90;;;20.10;90.50;;;;;;5074201;28;20119;-61
2022/06/16 08:30:10;;;;;;;1999.90;999.90;;;20.00;92.80;;;;;;5073655;28;20040;-61
2022/06/16 08:32:36;;;;;;;1999.90;999.90;;;20.00;91.80;;;;;;5076464;28;20032;-61
2022/06/16 08:35:03;;;;;;;1999.90;999.90;;;20.00;92.20;;;;;;5078042;28;20676;-61
2022/06/16 08:37:29;;;;;;;1999.90;999.90;;;20.00;92.40;;;;;;5071279;28;20048;-61
2022/06/16 08:39:55;;;;;;;1999.90;999.90;;;20.00;92.60;;;;;;5052735;28;20053;-61
2022/06/16 08:42:33;;;;;;;1999.90;999.90;;;20.10;92.70;;;;;;5062254;28;20044;-60
2022/06/16 08:45:15;;;;;;;1999.90;999.90;;;20.30;91.90;;;;;;5072431;28;20036;-61
2022/06/16 08:48:06;;;;;;;1999.90;999.90;;;20.50;90.70;;;;;;5070368;28;20512;-60
2022/06/16 08:50:37;;;;;;;1999.90;999.90;;;20.60;90.80;;;;;;5067417;28;20045;-61
2022/06/16 08:53:15;;;;;;;1999.90;999.90;;;20.80;90.20;;;;;;5071232;28;20102;-61
2022/06/16 08:55:47;;;;;;;1999.90;999.90;;;20.90;88.20;;;;;;5072952;28;20052;-61
2022/06/16 08:58:27;;;;;;;1999.90;999.90;;;21.00;89.70;;;;;;5071616;28;20045;-61
2022/06/16 09:01:00;;;;;;;1999.90;999.90;;;21.20;88.30;;;;;;5072266;28;20049;-61
2022/06/16 09:03:48;;;;;;;1999.90;999.90;;;21.30;89.20;;;;;;5071354;28;20502;-61
2022/06/16 09:06:43;;;;;;;1999.90;999.90;;;21.50;89.60;;;;;;5069283;28;20413;-61
2022/06/16 09:12:40;;;;;;;1999.90;999.90;;;21.50;83.30;;;;;;5072664;28;20044;-61
2022/06/16 09:15:22;;;;;;;1999.90;999.90;;;21.30;85.20;;;;;;5071819;28;20076;-61
2022/06/16 09:18:01;;;;;;;1999.90;999.90;;;21.30;87.20;;;;;;5069508;28;20044;-61
2022/06/16 09:20:49;;;;;;;1999.90;999.90;;;21.30;87.60;;;;;;5053132;28;20089;-61
2022/06/16 09:23:31;;;;;;;1999.90;999.90;;;21.30;83.80;;;;;;5064551;28;20044;-61
2022/06/16 09:26:19;;;;;;;1999.90;999.90;;;21.30;86.40;;;;;;5077076;28;20075;-61
2022/06/16 09:28:55;;;;;;;1999.90;999.90;;;21.50;85.40;;;;;;5091229;28;20398;-61
2022/06/16 09:31:29;;;;;;;1999.90;999.90;;;21.70;87.10;;;;;;5091554;28;20150;-61
2022/06/16 09:34:03;;;;;;;1999.90;999.90;;;21.90;86.50;;;;;;5092955;28;20424;-61
2022/06/16 09:36:35;;;;;;;1999.90;999.90;;;22.00;84.40;;;;;;5064475;28;20127;-61
2022/06/16 09:39:19;;;;;;;1999.90;999.90;;;22.00;85.50;;;;;;5071891;28;20493;-61
2022/06/16 09:44:53;;;;;;;1999.90;999.90;;;21.70;87.20;;;;;;5063019;28;20041;-61
2022/06/16 09:47:26;;;;;;;1999.90;999.90;;;21.80;89.00;;;;;;5064073;28;20056;-61
2022/06/16 09:50:01;;;;;;;1999.90;999.90;;;21.90;82.50;;;;;;5058531;28;20041;-61
2022/06/16 09:52:36;;;;;;;1999.90;999.90;;;22.00;87.90;;;;;;5055914;28;20139;-61
2022/06/16 09:55:09;;;;;;;1999.90;999.90;;;22.30;90.50;;;;;;5071055;28;20514;-61
2022/06/16 09:57:43;;;;;;;1999.90;999.90;;;22.50;86.70;;;;;;5068666;28;20052;-61
2022/06/16 10:00:16;;;;;;;1999.90;999.90;;;22.70;84.80;;;;;;5068174;28;20904;-61
2022/06/16 10:02:49;;;;;;;1999.90;999.90;;;22.90;85.10;;;;;;5071255;28;20045;-61
2022/06/16 10:05:23;;;;;;;1999.90;999.90;;;22.90;85.70;;;;;;5071588;28;20122;-61
2022/06/16 10:08:04;;;;;;;1999.90;999.90;;;23.00;82.30;;;;;;5066576;28;20048;-61
2022/06/16 10:10:39;;;;;;;1999.90;999.90;;;23.00;85.70;;;;;;5069983;28;20075;-61
2022/06/16 10:13:13;;;;;;;1999.90;999.90;;;23.10;84.10;;;;;;5083251;28;20086;-61
2022/06/16 10:15:49;;;;;;;1999.90;999.90;;;23.10;83.40;;;;;;5070850;28;20575;-61
2022/06/16 10:18:17;;;;;;;1999.90;999.90;;;23.10;85.00;;;;;;5072300;28;20055;-61
2022/06/16 10:20:44;;;;;;;1999.90;999.90;;;23.20;86.00;;;;;;5078949;28;20040;-61
2022/06/16 10:23:25;;;;;;;1999.90;999.90;;;23.40;85.70;;;;;;5071834;28;20044;-61
2022/06/16 10:25:56;;;;;;;1999.90;999.90;;;23.50;84.90;;;;;;5071179;28;20052;-61
2022/06/16 10:28:35;;;;;;;1999.90;999.90;;;23.70;84.20;;;;;;5070983;28;20511;-61
2022/06/16 10:31:04;;;;;;;1999.90;999.90;;;23.90;84.10;;;;;;5051827;28;20037;-61
2022/06/16 10:33:33;;;;;;;1999.90;999.90;;;24.20;82.50;;;;;;5053881;28;20052;-61
2022/06/16 10:36:06;;;;;;;1999.90;999.90;;;24.30;73.10;;;;;;5070407;28;20541;-61
2022/06/16 10:38:36;;;;;;;1999.90;999.90;;;24.20;74.10;;;;;;5086008;28;20047;-61
2022/06/16 10:41:06;;;;;;;1999.90;999.90;;;24.30;72.10;;;;;;5085565;28;20139;-61
2022/06/16 10:43:39;;;;;;;1999.90;999.90;;;24.50;75.40;;;;;;5073533;28;20075;-61
2022/06/16 10:46:13;;;;;;;1999.90;999.90;;;24.70;68.50;;;;;;5075828;28;20055;-61
2022/06/16 10:48:48;;;;;;;1999.90;999.90;;;24.60;70.30;;;;;;5055455;28;20190;-61
2022/06/16 10:51:18;;;;;;;1999.90;999.90;;;24.90;72.50;;;;;;5055939;28;20063;-61
2022/06/16 10:53:48;;;;;;;1999.90;999.90;;;25.40;69.10;;;;;;5055707;28;20131;-61
2022/06/16 10:56:19;;;;;;;1999.90;999.90;;;;;;;;;;5074064;28;20041;-61
2022/06/16 10:58:50;;;;;;;1999.90;999.90;;;25.80;95.60;;;;;;5076220;28;20048;-62
2022/06/16 11:01:21;;;;;;;1999.90;999.90;;;26.40;77.50;;;;;;5075398;28;20294;-61
2022/06/16 11:03:51;;;;;;;1999.90;999.90;;;26.80;64.20;;;;;;5075440;28;20090;-61
2022/06/16 11:06:20;;;;;;;1999.90;999.90;;;26.60;64.40;;;;;;5056890;28;20136;-61
2022/06/16 11:08:50;;;;;;;1999.90;999.90;;;26.60;66.30;;;;;;5053971;28;20045;-61
2022/06/16 11:11:18;;;;;;;1999.90;999.90;;;;;;;;;;5055029;28;20053;-61
2022/06/16 11:13:52;;;;;;;1999.90;999.90;;;27.40;64.30;;;;;;5073541;28;20113;-61
2022/06/16 11:16:30;;;;;;;1999.90;999.90;;;27.80;63.50;;;;;;5074772;28;20047;-61
2022/06/16 11:19:00;;;;;;;1999.90;999.90;;;28.00;61.20;;;;;;5073480;28;20240;-61
2022/06/16 11:21:30;;;;;;;1999.90;999.90;;;28.00;61.40;;;;;;5074003;28;21355;-61
2022/06/16 11:24:01;;;;;;;1999.90;999.90;;;27.70;57.10;;;;;;5073646;28;20080;-61
2022/06/16 11:26:30;;;;;;;1999.90;999.90;;;27.40;61.10;;;;;;5069941;28;20032;-61
2022/06/16 11:29:01;;;;;;;1999.90;999.90;;;27.40;61.70;;;;;;5073681;28;20051;-62
2022/06/16 11:31:40;;;;;;;1999.90;999.90;;;27.40;55.50;;;;;;5075773;28;20383;-61
2022/06/16 11:34:22;;;;;;;1999.90;999.90;;;26.70;59.80;;;;;;5059847;28;20129;-61
2022/06/16 11:37:09;;;;;;;1999.90;999.90;;;26.60;61.30;;;;;;5066426;28;20045;-62
2022/06/16 11:39:47;;;;;;;1999.90;999.90;;;26.70;58.60;;;;;;5070706;28;20135;-61
2022/06/16 11:42:25;;;;;;;1999.90;999.90;;;26.40;62.60;;;;;;5059267;28;20049;-61
2022/06/16 11:45:08;;;;;;;1999.90;999.90;;;26.70;62.70;;;;;;5058578;28;20130;-61
2022/06/16 11:47:44;;;;;;;1999.90;999.90;;;27.20;61.50;;;;;;5065972;28;20093;-61
2022/06/16 11:50:19;;;;;;;1999.90;999.90;;;26.90;59.80;;;;;;5076252;28;20449;-61
2022/06/16 11:53:07;;;;;;;1999.90;999.90;;;26.90;60.50;;;;;;5072906;28;20045;-61
2022/06/16 11:55:47;;;;;;;1999.90;999.90;;;27.30;61.60;;;;;;5073861;28;20059;-62
2022/06/16 11:58:21;;;;;;;1999.90;999.90;;;27.80;61.30;;;;;;5078438;28;20040;-62
2022/06/16 12:00:46;;;;;;;1999.90;999.90;;;28.20;60.20;;;;;;5093107;28;20493;-62
2022/06/16 12:03:25;;;;;;;1999.90;999.90;;;28.40;60.00;;;;;;5074819;28;20091;-61
2022/06/16 12:06:22;;;;;;;1999.90;999.90;;;28.40;58.50;;;;;;5063719;28;20056;-61
2022/06/16 12:09:02;;;;;;;1999.90;999.90;;;28.40;59.80;;;;;;5074866;28;20060;-62
2022/06/16 12:11:42;;;;;;;1999.90;999.90;;;28.50;58.90;;;;;;5070357;28;20098;-62
2022/06/16 12:14:31;;;;;;;1999.90;999.90;;;28.60;58.90;;;;;;5059741;28;20080;-62
2022/06/16 12:17:11;;;;;;;1999.90;999.90;;;28.40;57.80;;;;;;5074207;28;20084;-62
2022/06/16 12:20:14;;;;;;;1999.90;999.90;;;27.80;58.20;;;;;;5053126;28;20045;-62
2022/06/16 12:22:47;;;;;;;1999.90;999.90;;;27.10;58.90;;;;;;5077243;28;20049;-62
2022/06/16 12:25:36;;;;;;;1999.90;999.90;;;26.30;61.70;;;;;;5074036;28;20040;-62
2022/06/16 12:28:12;;;;;;;1999.90;999.90;;;25.70;59.90;;;;;;5073141;28;20048;-62
2022/06/16 12:30:46;;;;;;;1999.90;999.90;;;25.50;63.70;;;;;;5074392;28;20036;-62
2022/06/16 12:33:32;;;;;;;1999.90;999.90;;;25.60;64.70;;;;;;5070416;28;20052;-61
2022/06/16 12:36:17;;;;;;;1999.90;999.90;;;26.10;64.40;;;;;;5067507;28;20047;-62
2022/06/16 12:39:00;;;;;;;1999.90;999.90;;;26.50;63.80;;;;;;5069654;28;20048;-62
2022/06/16 12:41:30;;;;;;;1999.90;999.90;;;26.70;62.30;;;;;;5079888;28;20052;-62
2022/06/16 12:44:02;;;;;;;1999.90;999.90;;;26.70;62.10;;;;;;5071748;28;20052;-62
2022/06/16 12:46:37;;;;;;;1999.90;999.90;;;26.90;63.10;;;;;;5073919;28;20091;-62
2022/06/16 12:49:16;;;;;;;1999.90;999.90;;;27.10;61.80;;;;;;5073261;28;20040;-62
2022/06/16 12:51:54;;;;;;;1999.90;999.90;;;26.70;58.60;;;;;;5076890;28;20053;-62
2022/06/16 12:54:40;;;;;;;1999.90;999.90;;;26.30;59.90;;;;;;5065942;28;20455;-62
2022/06/16 12:57:11;;;;;;;1999.90;999.90;;;25.80;62.90;;;;;;5070503;28;20044;-62